FW7451 Weather Reports


Display with metric or nautical units.
time (UTC)temp
F
wind
direction
speed
MPH
gust
MPH
rain 1hr
in
rain 24hr
in
rain mn
in
humidity
%
barometer
mb
20210613043211 64 0 0.0 0.0 0.00 0.00 0.00 95 1013.5
20210613041701 65 0 0.0 0.0 0.00 0.00 0.00 95 1013.5
20210613040243 64 0 0.0 0.0 0.00 0.00 0.00 95 1013.6
20210613034712 65 0 0.0 0.0 0.00 0.00 0.00 95 1013.1
20210613033202 64 0 0.0 0.0 0.00 0.00 0.00 95 1013.3
20210613031638 64 0 0.0 0.0 0.00 0.00 0.00 95 1013.2
20210613030308 65 0 0.0 0.0 0.00 0.00 0.00 95 1013.4
20210613024633 65 0 0.0 0.0 0.00 0.00 0.00 95 1013.3
20210613023334 65 0 0.0 0.0 0.00 0.00 0.00 95 1013.2
20210613021636 65 0 0.0 0.0 0.00 0.00 0.00 95 1012.9
20210613020124 65 0 0.0 0.0 0.00 0.00 0.00 95 1012.4
20210613014643 66 0 0.0 0.0 0.00 0.00 0.00 95 1012.1
20210613013313 66 0 0.0 0.0 0.00 0.00 0.00 94 1011.9
20210613011639 66 0 0.0 0.0 0.00 0.00 0.00 94 1011.4
20210613010134 67 24 0.0 2.0 0.00 0.00 0.00 94 1011.1
20210613004753 67 25 0.0 2.0 0.00 0.00 0.00 94 1011.1
20210613003200 67 0 1.0 3.0 0.00 0.00 0.00 94 1011.1
20210613001622 67 327 0.0 4.0 0.00 0.00 0.00 93 1010.9
20210613000145 68 40 0.0 2.0 0.00 0.00 0.00 93 1011.0
20210612234738 68 27 1.0 4.0 0.00 0.00 0.00 92 1011.0
20210612233141 69 36 1.0 5.0 0.00 0.00 0.00 90 1011.0
20210612231624 70 350 2.0 8.0 0.00 0.00 0.00 88 1010.4
20210612230134 70 49 2.0 10.0 0.00 0.00 0.00 87 1010.4
20210612224639 70 29 2.0 9.0 0.00 0.00 0.00 86 1010.3
20210612223151 71 59 3.0 8.0 0.00 0.00 0.00 85 1010.0
20210612221655 72 111 2.0 11.0 0.00 0.00 0.00 84 1009.9
20210612220321 72 97 2.0 6.0 0.00 0.00 0.00 83 1009.9
20210612214637 73 67 2.0 8.0 0.00 0.00 0.00 82 1010.0
20210612213125 74 104 2.0 7.0 0.00 0.00 0.00 81 1009.9
20210612211638 74 40 2.0 9.0 0.00 0.00 0.00 81 1009.7
20210612210114 76 38 4.0 9.0 0.00 0.00 0.00 80 1009.6
20210612204709 72 51 3.0 9.0 0.00 0.00 0.00 86 1009.6
20210612203137 71 24 1.0 4.0 0.00 0.00 0.00 87 1009.4
20210612201652 69 116 2.0 8.0 0.00 0.00 0.00 91 1009.1
20210612200218 69 90 2.0 7.0 0.00 0.00 0.00 92 1009.4
20210612194642 69 98 1.0 5.0 0.00 0.00 0.00 92 1009.7
20210612193223 69 75 2.0 6.0 0.00 0.00 0.00 92 1009.8
20210612191658 69 44 1.0 6.0 0.00 0.00 0.00 93 1009.8
20210612190217 69 61 2.0 8.0 0.00 0.00 0.00 94 1009.8
20210612184647 68 76 2.0 5.0 0.00 0.00 0.00 94 1009.9
20210612183205 67 98 1.0 3.0 0.00 0.00 0.00 94 1009.7
20210612181625 66 44 1.0 4.0 0.00 0.00 0.00 93 1010.1
20210612180237 69 44 5.0 10.0 0.00 0.00 0.00 92 1010.4
20210612174658 74 309 1.0 5.0 0.00 0.00 0.00 86 1010.2
20210612173209 77 203 1.0 5.0 0.00 0.00 0.00 81 1009.9
20210612171715 79 213 1.0 5.0 0.00 0.00 0.00 76 1010.1
20210612170236 76 227 1.0 4.0 0.00 0.00 0.00 83 1010.3
20210612164703 75 200 1.0 4.0 0.00 0.00 0.00 80 1010.4
20210612163151 75 250 1.0 4.0 0.00 0.00 0.00 85 1010.4
20210612161638 75 252 1.0 3.0 0.00 0.00 0.00 86 1010.6
20210612160153 75 215 0.0 4.0 0.00 0.00 0.00 86 1010.7
20210612154730 74 211 0.0 3.0 0.00 0.00 0.00 91 1010.6
20210612153212 72 0 0.0 2.0 0.00 0.00 0.00 89 1010.4
20210612151623 71 0 0.0 2.0 0.00 0.00 0.00 94 1010.4
20210612150129 70 0 0.0 0.0 0.00 0.00 0.00 92 1010.5
20210612144755 69 0 0.0 3.0 0.00 0.00 0.00 94 1010.4
20210612143402 69 107 0.0 2.0 0.00 0.00 0.00 93 1010.4
20210612141655 69 0 0.0 2.0 0.00 0.00 0.00 94 1010.6
20210612140237 69 39 0.0 2.0 0.00 0.00 0.00 94 1010.6
20210612134713 67 5 2.0 4.0 0.00 0.00 0.00 93 1010.6
20210612133217 67 29 0.0 4.0 0.00 0.00 0.00 94 1010.6
20210612131718 68 32 1.0 3.0 0.00 0.00 0.00 93 1010.5
20210612130159 70 22 2.0 5.0 0.00 0.00 0.00 88 1010.3
20210612124659 71 220 0.0 4.0 0.00 0.00 0.00 86 1009.9
20210612123228 71 233 0.0 4.0 0.00 0.00 0.00 88 1010.0
20210612121646 70 57 1.0 4.0 0.00 0.00 0.00 87 1009.9
20210612120236 69 0 0.0 0.0 0.00 0.00 0.00 88 1009.7
20210612114624 68 0 0.0 0.0 0.00 0.00 0.00 90 1009.5
20210612113218 66 0 0.0 0.0 0.00 0.00 0.00 93 1009.4
20210612111630 66 0 0.0 0.0 0.00 0.00 0.00 93 1009.4
20210612110200 64 0 0.0 0.0 0.00 0.00 0.00 94 1009.3
20210612104622 63 0 0.0 0.0 0.00 0.00 0.00 94 1009.4
20210612103219 63 0 0.0 0.0 0.00 0.00 0.00 94 1009.1
20210612101640 63 0 0.0 0.0 0.00 0.00 0.00 94 1009.0
20210612100212 63 0 0.0 0.0 0.00 0.00 0.00 94 1009.2
20210612094825 63 0 0.0 0.0 0.00 0.00 0.00 94 1009.1
20210612093257 63 0 0.0 0.0 0.00 0.00 0.00 94 1009.0
20210612091713 63 0 0.0 0.0 0.00 0.00 0.00 95 1008.8
20210612090153 63 0 0.0 0.0 0.00 0.00 0.00 94 1008.8
20210612084714 63 0 0.0 0.0 0.00 0.00 0.00 94 1008.6
20210612083148 63 0 0.0 0.0 0.00 0.00 0.00 95 1008.7
20210612081710 63 0 0.0 1.0 0.00 0.00 0.00 94 1008.7
20210612080139 63 109 0.0 1.0 0.00 0.00 0.00 94 1008.7
20210612074623 63 0 0.0 1.0 0.00 0.00 0.00 94 1008.8
20210612073154 64 0 0.0 1.0 0.00 0.00 0.00 94 1008.9
20210612071633 64 0 0.0 2.0 0.00 0.00 0.00 94 1008.9
20210612070143 64 110 0.0 3.0 0.00 0.00 0.00 94 1009.0
20210612064640 64 0 0.0 2.0 0.00 0.00 0.00 93 1009.1
20210612063215 65 0 0.0 0.0 0.00 0.00 0.00 93 1009.1
20210612061705 64 0 0.0 0.0 0.00 0.00 0.00 94 1009.2
20210612060139 64 0 0.0 0.0 0.00 0.00 0.00 93 1009.4
20210612054713 64 0 0.0 0.0 0.00 0.00 0.00 93 1009.4
20210612053140 65 0 0.0 0.0 0.00 0.00 0.00 93 1009.6
20210612051708 65 0 0.0 0.0 0.00 0.00 0.00 93 1009.5
20210612050127 65 0 0.0 0.0 0.00 0.00 0.00 93 1009.4
20210612044728 65 0 0.0 0.0 0.00 0.00 0.00 93 1009.4